Portada
METAR-TAF:

METAR-TAF

Aeroports :

Aeroport d'Hèlsinki-Vantaa

Hèlsinki, Finlàndia

latitud: 60-19N, longitud: 024-58E, altitud: 51 m

Observació

L'informe es va fer fa 34 minuts, a les 06:50 UTC
Vent 8 kt del Nord-Oest
Temperatura 7°C
Humitat 81%
Pressió 1018 hPa
Visibilitat 10 km o més
sense núvols per sota de 1500 mi sense presència de cumulonimbus.

METAR: EFHK 180650Z 31008KT CAVOK 07/04 Q1018 NOSIG

Hora: 10:24 (07:24 UTC)

Pronòstic

L'informe es va fer fa 1 hora i 57 minuts, a les 05:27 UTC
Pronòstic vàlid del 18 a les 06 UTC al 19 a les 06 UTC
Vent 9 kt del Nord-Oest
Visibilitat 10 km o més
sense núvols per sota de 1500 mi sense presència de cumulonimbus.
Evolucionant progressivament
l' 18 a les 10 UTC al 18 a les 12 UTC
Vent 10 kt del Oest

TAF: EFHK 180527Z 1806/1906 32009KT CAVOK BECMG 1810/1812 26010KT

Observacions i pronòstics meteorològics de més de 4000 aeroports (METAR i TAF).

Les estacions disponibles són els punts grocs i vermells al mapa.

Posi el ratolí al punt desitjat per veure el nom de l'estació.

Feu clic per veure les observacions i els pronòstics meteorològics.

Per canviar el mapa: feu clic els botons verds amb una creu de color negre per apropar; al botó verd amb un guió per allunyar la imatge; o en les fletxes verdes per a mapes adjacents.


METAR-TAF: